Flight Track Log - Related Links

Times and Time Zones

All times are in EDT time to prevent confusion due to time zone crossing. See the UAL395 flight status page for this flight to view local times or setup timezone preferences in your user account.

Time Position Orientation Groundspeed Altitude Reporting Facility
EDT Latitude Longitude Course Direction KTS MPH feet Rate Location/Type
Sun 02:38:54 PM 38.9500 -77.5167 252° West 168 193 1,600  Level Potomac TRACON
Sun 02:39:54 PM 38.9333 -77.5833 252° West 214 246 3,300 2,400 Climbing Potomac TRACON
Sun 02:40:54 PM 38.9000 -77.6667 243° Southwest 258 297 6,400 2,680 Climbing Potomac TRACON
Sun 02:42:24 PM 38.8497 -77.7828 241° Southwest 272 313 10,000 1,720 Climbing Washington Center
Sun 02:43:24 PM 38.8711 -77.8606 289° West 258 297 10,700 966 Climbing Washington Center
Sun 02:44:22 PM 38.8981 -77.9842 286° West 296 341 11,900 661 Climbing Washington Center
Sun 02:45:22 PM 38.9039 -78.1017 274° West 321 369 12,000 893 Climbing Washington Center
Sun 02:46:23 PM 38.9119 -78.2194 275° West 335 386 13,700 1,934 Climbing Washington Center
Sun 02:47:23 PM 38.9217 -78.3397 276° West 341 392 15,900 2,083 Climbing Washington Center
Sun 02:48:24 PM 38.9311 -78.4656 276° West 347 399 17,900 2,186 Climbing Washington Center
Sun 02:49:21 PM 38.9428 -78.5942 277° West 357 411 20,200 2,017 Climbing Washington Center
Sun 02:50:23 PM 38.9561 -78.7228 278° West 367 422 21,900 1,574 Climbing Washington Center
Sun 02:51:23 PM 38.9672 -78.8542 276° West 372 428 23,400 1,289 Climbing Washington Center
Sun 02:52:24 PM 38.9778 -78.9961 276° West 385 443 24,500 1,109 Climbing Washington Center
Sun 02:53:22 PM 38.9883 -79.1408 275° West 403 464 25,600 958 Climbing Washington Center
Sun 02:54:23 PM 39.0022 -79.3019 276° West 429 494 26,400 1,240 Climbing Washington Center
Sun 02:55:23 PM 39.0139 -79.4575 276° West 447 514 28,100 1,508 Climbing Washington Center
Sun 02:57:22 PM 39.0389 -79.7689 276° West 441 507 30,900 1,362 Climbing Washington Center
Sun 02:58:50 PM 39.0533 -79.9903 275° West 417 480 32,800 1,200 Climbing Indianapolis Center
Sun 02:59:52 PM 39.0633 -80.1311 275° West 415 478 33,900 585 Climbing Indianapolis Center
Sun 03:00:53 PM 39.0742 -80.2756 276° West 408 470 34,000 32 Climbing Indianapolis Center
Sun 03:02:00 PM 39.0833 -80.4299 270° West  Level FlightAware Approximate
Sun 03:02:57 PM 39.1064 -80.5944 270° West 415 478 34,000  Level Indianapolis Center
Sun 03:03:59 PM 39.1658 -80.7328 299° West 443 510 34,000  Level Indianapolis Center
Sun 03:06:02 PM 39.2875 -81.0114 299° West 447 514 34,000  Level Indianapolis Center
Sun 03:07:04 PM 39.3481 -81.1500 299° West 448 516 34,000  Level Indianapolis Center
Sun 03:08:05 PM 39.4075 -81.2892 299° West 447 514 34,000  Level Indianapolis Center
Sun 03:09:07 PM 39.4783 -81.4575 299° West 447 514 34,000  Level Indianapolis Center
Sun 03:10:09 PM 39.5386 -81.5961 299° West 445 512 34,000  Level Indianapolis Center
Sun 03:11:11 PM 39.5983 -81.7375 299° West 446 513 34,000  Level Indianapolis Center
Sun 03:12:12 PM 39.6575 -81.8783 299° West 447 514 34,000 -49 Level Indianapolis Center
Sun 03:13:14 PM 39.7125 -82.0342 295° West 442 509 33,900 -48 Descending Indianapolis Center
Sun 03:14:16 PM 39.7600 -82.1797 293° West 436 502 33,900  Level Indianapolis Center
Sun 03:15:18 PM 39.8081 -82.3244 293° West 435 501 33,900  Level Indianapolis Center
Sun 03:16:20 PM 39.8567 -82.4683 294° West 433 498 33,900  Level Indianapolis Center
Sun 03:17:21 PM 39.9067 -82.6117 294° West 432 497 33,900  Level Indianapolis Center
Sun 03:18:23 PM 39.9683 -82.7514 300° West 440 506 33,900  Level Indianapolis Center
Sun 03:19:25 PM 40.0386 -82.9153 299° West 443 510 33,900  Level Indianapolis Center
Sun 03:20:27 PM 40.0989 -83.0544 300° West 441 507 33,900  Level Indianapolis Center
Sun 03:21:29 PM 40.1592 -83.1958 299° West 445 512 33,900  Level Indianapolis Center
Sun 03:22:30 PM 40.2186 -83.3361 299° West 443 510 33,900  Level Indianapolis Center
Sun 03:23:32 PM 40.2775 -83.4756 299° West 438 504 33,900  Level Indianapolis Center
Sun 03:24:34 PM 40.3364 -83.6172 299° West 441 507 33,900  Level Indianapolis Center
Sun 03:25:36 PM 40.4056 -83.7811 299° West 439 505 33,900  Level Indianapolis Center
Sun 03:26:37 PM 40.4394 -83.9286 287° West 424 488 33,900 49 Level Indianapolis Center
Sun 03:27:39 PM 40.4553 -84.0783 278° West 413 475 34,000  Climbing Indianapolis Center
Sun 03:28:41 PM 40.5222 -84.2203 302° West 448 516 33,900 -48 Descending Indianapolis Center
Sun 03:29:43 PM 40.5886 -84.3594 302° West 448 516 33,900  Level Indianapolis Center
Sun 03:30:44 PM 40.6542 -84.4958 302° West 440 506 33,900  Level Indianapolis Center
Sun 03:31:46 PM 40.7181 -84.6350 301° West 439 505 33,900  Level Indianapolis Center
Sun 03:32:48 PM 40.7833 -84.7769 301° West 448 516 33,900 48 Level Indianapolis Center
Sun 03:33:50 PM 40.8511 -84.9267 301° West 452 520 34,000 45 Climbing Indianapolis Center
Sun 03:35:00 PM 40.9336 -85.1064 301° West 454 522 34,000 -557 Level Chicago Center
Sun 03:37:04 PM 41.0619 -85.3911 301° West 451 519 32,200 -1,323 Descending Chicago Center
Sun 03:38:06 PM 41.1267 -85.5358 301° West 452 520 29,900 -2,226 Descending Chicago Center
Sun 03:39:08 PM 41.1917 -85.6828 300° West 457 526 27,600 -2,274 Descending Chicago Center
Sun 03:40:10 PM 41.2544 -85.8256 300° West 449 517 25,200 -1,258 Descending Chicago Center
Sun 03:41:12 PM 41.2972 -85.9811 290° West 446 513 25,000 -97 Descending Chicago Center
Sun 03:42:14 PM 41.3397 -86.1686 287° West 440 506 25,000  Level Chicago Center
Sun 03:43:16 PM 41.3758 -86.3253 287° West 441 507 25,000 -871 Level Chicago Center
Sun 03:44:18 PM 41.4119 -86.4811 287° West 441 507 23,200 -2,032 Descending Chicago Center
Sun 03:45:20 PM 41.4447 -86.6314 286° West 424 488 20,800 -2,400 Descending Chicago Center
Sun 03:46:23 PM 41.4817 -86.7922 287° West 410 472 18,200 -2,352 Descending Chicago Center
Sun 03:47:25 PM 41.5131 -86.9342 286° West 404 465 15,900 -2,226 Descending Chicago Center
Sun 03:48:27 PM 41.5431 -87.0681 287° West 384 442 13,600 -1,887 Descending Chicago Center
Sun 03:49:29 PM 41.5714 -87.1989 286° West 371 427 12,000 -774 Descending Chicago Center
Sun 03:50:31 PM 41.6328 -87.3269 303° West 343 395 12,000 -339 Level Chicago Center
Sun 03:51:33 PM 41.6853 -87.4122 310° West 308 354 11,300 -581 Descending Chicago Center
Sun 03:52:35 PM 41.7394 -87.4897 313° West 292 336 10,800 -1,113 Descending Chicago Center
Sun 03:53:37 PM 41.7981 -87.5661 316° Northwest 297 342 9,000 -1,548 Descending Chicago Center
Sun 03:54:39 PM 41.8522 -87.6428 314° West 289 333 7,600 -968 Descending Chicago Center
Sun 03:55:41 PM 41.8644 -87.7678 278° West 304 350 7,000 -234 Descending Chicago Center
Sun 03:57:13 PM 41.8500 -87.9000 262° West 231 266 7,000 -242 Level Chicago TRACON
Sun 03:57:45 PM 41.8236 -87.9292 219° Southwest 234 269 6,500 -938 Descending Chicago Center

Login

Don't have an account? Register now (free) for customized features, flight alerts, and more!